Time;durP1;ratioP1;P1;durP2;ratioP2;P2;SDS_P1;SDS_P2;PMS_P1;PMS_P2;Temp;Humidity;BMP_temperature;BMP_pressure;BME280_temperature;BME280_humidity;BME280_pressure;Samples;Min_cycle;Max_cycle;Signal;HPM_P1;HPM_P2
2022/10/13 00:01:30;;;;;;;65.90;32.80;;;;;;;3.48;62.11;99951.56;103056;1303;95251;-74
2022/10/13 00:03:58;;;;;;;62.60;35.50;;;;;;;3.45;62.66;99947.45;103009;1298;107386;-74
2022/10/13 00:06:29;;;;;;;82.40;48.80;;;;;;;3.46;62.61;99946.19;102957;1298;96283;-75
2022/10/13 00:08:59;;;;;;;86.10;47.40;;;;;;;3.44;62.35;99947.83;103081;1300;97879;-76
2022/10/13 00:11:30;;;;;;;78.40;45.10;;;;;;;3.41;62.36;99943.86;103055;1301;110946;-76
2022/10/13 00:14:02;;;;;;;85.30;48.40;;;;;;;3.39;62.61;99945.31;103070;1303;97881;-75
2022/10/13 00:16:32;;;;;;;79.50;40.40;;;;;;;3.38;62.51;99945.71;103061;1300;107032;-75
2022/10/13 00:19:01;;;;;;;63.10;37.20;;;;;;;3.34;62.42;99941.79;103138;1304;98096;-76
2022/10/13 00:21:31;;;;;;;60.50;33.70;;;;;;;3.32;62.52;99947.28;103143;1295;97934;-76
2022/10/13 00:23:59;;;;;;;58.80;33.30;;;;;;;3.30;62.55;99942.94;103152;1297;111180;-76
2022/10/13 00:26:30;;;;;;;69.20;35.70;;;;;;;3.28;62.47;99942.14;103180;1296;95216;-76
2022/10/13 00:29:01;;;;;;;60.60;34.90;;;;;;;3.26;62.89;99940.78;103158;1303;108106;-76
2022/10/13 00:31:32;;;;;;;66.90;35.80;;;;;;;3.25;62.61;99941.52;103197;1297;97860;-76
2022/10/13 00:34:03;;;;;;;59.20;31.10;;;;;;;3.23;62.79;99936.50;103128;1308;98000;-75
2022/10/13 00:36:31;;;;;;;61.70;34.90;;;;;;;3.21;62.74;99934.46;103141;1302;111153;-76
2022/10/13 00:39:00;;;;;;;66.20;36.80;;;;;;;3.19;62.66;99931.19;103096;1295;97847;-79
2022/10/13 00:41:27;;;;;;;60.40;34.80;;;;;;;3.17;62.60;99929.30;103043;1297;107497;-76
2022/10/13 00:44:04;;;;;;;65.90;36.40;;;;;;;3.16;62.92;99928.98;103019;1303;95653;-75
2022/10/13 00:46:36;;;;;;;58.20;33.00;;;;;;;3.12;62.96;99926.80;102971;1300;97883;-74
2022/10/13 00:49:13;;;;;;;50.90;29.70;;;;;;;3.10;62.76;99921.77;103041;1303;110751;-73
2022/10/13 00:51:48;;;;;;;64.80;34.40;;;;;;;3.09;62.85;99923.55;103027;1296;97973;-75
2022/10/13 00:54:23;;;;;;;68.50;40.10;;;;;;;3.08;62.94;99919.55;103059;1303;107520;-74
2022/10/13 00:56:54;;;;;;;77.90;43.70;;;;;;;3.05;62.80;99921.39;103039;1310;98462;-74
2022/10/13 00:59:29;;;;;;;83.20;46.00;;;;;;;3.04;62.91;99918.45;103055;1303;97893;-75
2022/10/13 01:02:01;;;;;;;80.90;46.30;;;;;;;3.01;62.85;99914.50;103096;1303;110966;-74
2022/10/13 01:04:40;;;;;;;85.30;46.60;;;;;;;2.98;62.85;99913.70;103075;1296;97964;-74
2022/10/13 01:07:13;;;;;;;77.50;44.10;;;;;;;2.94;62.91;99914.69;103106;1305;107643;-75
2022/10/13 01:09:41;;;;;;;78.90;45.20;;;;;;;2.90;63.04;99911.63;103163;1298;95145;-74
2022/10/13 01:12:40;;;;;;;82.90;47.00;;;;;;;2.88;63.08;99912.22;103155;1296;97893;-75
2022/10/13 01:15:10;;;;;;;78.00;43.80;;;;;;;2.85;62.98;99907.22;103114;1303;111161;-76
2022/10/13 01:17:44;;;;;;;76.60;43.40;;;;;;;2.82;63.26;99909.94;103159;1297;97896;-75
2022/10/13 01:20:34;;;;;;;78.80;43.80;;;;;;;2.80;63.29;99911.40;103174;1303;107234;-75
2022/10/13 01:23:45;;;;;;;79.80;42.80;;;;;;;2.77;63.21;99905.16;103321;1297;97893;-75
2022/10/13 01:26:41;;;;;;;68.00;40.70;;;;;;;2.74;63.32;99904.91;103072;1298;95178;-75
2022/10/13 01:29:17;;;;;;;76.70;40.00;;;;;;;2.71;63.22;99903.39;103125;1290;111197;-75
2022/10/13 01:32:03;;;;;;;71.40;41.10;;;;;;;2.69;63.32;99905.89;103155;1296;98074;-75
2022/10/13 01:35:02;;;;;;;70.00;39.20;;;;;;;2.66;63.56;99903.19;103090;1298;105605;-76
2022/10/13 01:38:06;;;;;;;73.90;39.30;;;;;;;2.64;63.48;99904.29;103120;1300;95198;-75
2022/10/13 01:40:56;;;;;;;71.80;38.40;;;;;;;2.62;63.81;99900.15;103176;1297;97876;-74
2022/10/13 01:43:36;;;;;;;65.70;36.40;;;;;;;2.60;63.64;99899.50;103164;1303;111117;-74
2022/10/13 01:46:13;;;;;;;62.60;35.30;;;;;;;2.60;63.59;99897.91;103175;1302;97602;-74
2022/10/13 01:48:45;;;;;;;62.20;35.90;;;;;;;2.59;63.77;99896.35;103182;1303;107560;-75
2022/10/13 01:51:20;;;;;;;61.30;33.20;;;;;;;2.60;63.49;99896.17;103222;1303;97956;-75
2022/10/13 01:53:52;;;;;;;60.90;34.30;;;;;;;2.59;63.67;99893.20;103104;1296;97880;-74
2022/10/13 01:56:19;;;;;;;56.90;31.30;;;;;;;2.59;63.55;99890.23;103144;1304;110822;-75
2022/10/13 01:58:52;;;;;;;62.70;33.50;;;;;;;2.59;63.70;99891.30;103153;1296;97919;-74
2022/10/13 02:01:59;;;;;;;54.20;28.30;;;;;;;2.58;63.77;99887.45;102897;1299;107130;-75
2022/10/13 02:04:48;;;;;;;53.70;27.50;;;;;;;2.56;63.98;99891.18;103039;1298;97961;-74
2022/10/13 02:07:29;;;;;;;66.40;35.70;;;;;;;2.54;63.90;99893.51;103068;1303;97975;-74
2022/10/13 02:10:12;;;;;;;68.50;36.40;;;;;;;2.49;63.39;99895.39;103079;1301;111105;-74
2022/10/13 02:12:53;;;;;;;67.20;37.20;;;;;;;2.47;63.89;99896.68;103051;1297;98021;-75
2022/10/13 02:15:30;;;;;;;63.30;36.40;;;;;;;2.44;63.84;99890.98;103039;1303;107699;-74
2022/10/13 02:18:06;;;;;;;62.20;33.50;;;;;;;2.42;63.77;99894.54;103083;1300;95858;-75
2022/10/13 02:20:36;;;;;;;;;;;;;;;2.41;63.72;99890.20;103083;1298;97890;-75
2022/10/13 02:23:12;;;;;;;67.40;35.70;;;;;;;2.36;63.88;99889.95;103069;1297;111034;-76
2022/10/13 02:25:44;;;;;;;59.70;34.70;;;;;;;2.35;63.83;99889.97;103032;1300;97956;-74
2022/10/13 02:28:15;;;;;;;60.90;34.00;;;;;;;2.33;63.86;99887.21;103075;1298;107555;-77
2022/10/13 02:30:47;;;;;;;63.70;33.70;;;;;;;2.32;63.88;99883.41;103061;1296;95117;-75
2022/10/13 02:33:18;;;;;;;56.50;32.70;;;;;;;2.31;64.04;99880.28;103124;1304;95259;-76
2022/10/13 02:35:45;;;;;;;60.50;32.50;;;;;;;2.29;64.00;99874.02;103091;1298;110933;-77
2022/10/13 02:38:13;;;;;;;54.70;30.50;;;;;;;2.28;64.04;99870.02;103097;1296;99011;-76
2022/10/13 02:40:41;;;;;;;54.90;31.40;;;;;;;2.28;63.86;99869.48;102920;1300;107366;-75
2022/10/13 02:43:09;;;;;;;44.70;23.40;;;;;;;2.28;63.90;99867.94;103173;1298;97978;-75
2022/10/13 02:45:36;;;;;;;46.90;25.80;;;;;;;2.29;64.32;99866.86;103123;1297;96600;-74
2022/10/13 02:48:11;;;;;;;43.10;22.90;;;;;;;2.30;63.93;99866.13;103138;1296;111372;-73
2022/10/13 02:50:38;;;;;;;41.40;22.80;;;;;;;2.30;64.02;99864.73;103113;1308;98061;-73
2022/10/13 02:53:06;;;;;;;43.20;22.50;;;;;;;2.30;64.31;99862.63;103093;1303;105481;-74
2022/10/13 02:55:34;;;;;;;45.30;22.40;;;;;;;2.30;64.06;99857.55;103154;1299;97881;-74
2022/10/13 02:58:05;;;;;;;42.20;23.10;;;;;;;2.30;64.57;99857.54;103150;1304;98568;-74
2022/10/13 03:00:32;;;;;;;40.70;22.40;;;;;;;2.30;64.76;99859.65;103128;1296;111095;-75
2022/10/13 03:03:00;;;;;;;44.80;24.90;;;;;;;2.31;64.51;99856.12;103176;1296;97893;-75
2022/10/13 03:05:31;;;;;;;51.20;28.40;;;;;;;2.30;64.13;99853.18;103203;1296;106394;-75
2022/10/13 03:07:58;;;;;;;44.40;22.70;;;;;;;2.29;64.43;99856.36;103148;1297;98938;-76
2022/10/13 03:10:28;;;;;;;43.40;22.40;;;;;;;2.27;64.64;99855.70;103105;1304;99092;-74
2022/10/13 03:13:00;;;;;;;55.60;26.70;;;;;;;2.28;64.43;99858.48;102987;1305;111208;-73
2022/10/13 03:15:28;;;;;;;50.40;28.50;;;;;;;2.28;64.58;99861.10;103167;1297;95232;-74
2022/10/13 03:17:56;;;;;;;64.30;30.40;;;;;;;2.24;64.52;99861.04;103125;1297;107372;-75
2022/10/13 03:20:23;;;;;;;55.00;28.80;;;;;;;2.22;64.79;99859.67;103066;1297;95187;-75
2022/10/13 03:22:55;;;;;;;60.70;33.40;;;;;;;2.21;64.46;99863.03;103135;1304;97897;-75
2022/10/13 03:25:22;;;;;;;57.30;30.20;;;;;;;2.19;64.45;99863.95;103152;1298;111227;-75
2022/10/13 03:27:50;;;;;;;50.50;27.70;;;;;;;2.17;64.39;99861.39;103174;1304;95272;-74
2022/10/13 03:30:18;;;;;;;51.90;28.40;;;;;;;2.16;64.29;99861.40;103143;1303;107229;-74
2022/10/13 03:32:45;;;;;;;50.40;26.90;;;;;;;2.15;64.29;99857.22;103101;1297;97989;-74
2022/10/13 03:35:13;;;;;;;51.80;26.60;;;;;;;2.14;64.64;99861.27;103257;1297;97973;-74
2022/10/13 03:37:43;;;;;;;48.50;25.80;;;;;;;2.13;64.57;99857.63;103132;1304;110926;-76
2022/10/13 03:40:11;;;;;;;40.10;22.30;;;;;;;2.12;64.98;99859.05;103160;1297;95600;-75
2022/10/13 03:42:42;;;;;;;48.70;24.80;;;;;;;2.12;64.55;99860.80;103094;1296;108397;-75
2022/10/13 03:45:13;;;;;;;50.60;26.30;;;;;;;2.13;64.77;99862.17;103132;1303;97969;-76
2022/10/13 03:47:41;;;;;;;49.30;27.30;;;;;;;2.13;64.92;99863.95;103125;1290;98718;-74
2022/10/13 03:50:12;;;;;;;51.10;27.70;;;;;;;2.11;64.58;99862.23;103058;1290;111257;-77
2022/10/13 03:52:43;;;;;;;54.90;29.80;;;;;;;2.10;64.81;99860.50;103003;1304;98060;-77
2022/10/13 03:55:11;;;;;;;57.50;29.20;;;;;;;2.04;64.74;99855.73;103088;1302;107651;-75
2022/10/13 03:57:39;;;;;;;39.40;21.50;;;;;;;1.98;64.75;99851.89;103156;1296;97948;-76
2022/10/13 04:00:09;;;;;;;51.30;27.70;;;;;;;1.98;64.81;99847.52;103017;1297;98408;-77
2022/10/13 04:02:38;;;;;;;48.60;25.80;;;;;;;1.95;64.89;99841.64;102963;1298;111175;-75
2022/10/13 04:05:05;;;;;;;45.20;25.50;;;;;;;1.93;64.90;99843.08;102997;1294;98083;-76
2022/10/13 04:07:33;;;;;;;50.40;27.80;;;;;;;1.92;65.19;99841.00;102990;1290;107187;-76
2022/10/13 04:10:01;;;;;;;41.40;20.80;;;;;;;1.90;65.04;99837.20;102997;1296;98097;-77
2022/10/13 04:12:29;;;;;;;45.90;22.50;;;;;;;1.89;65.17;99838.79;103009;1296;97900;-77
2022/10/13 04:15:01;;;;;;;46.70;25.80;;;;;;;1.90;65.24;99838.77;102945;1296;110242;-75
2022/10/13 04:17:29;;;;;;;52.80;29.60;;;;;;;1.87;65.26;99838.66;102938;1296;95852;-75
2022/10/13 04:19:57;;;;;;;49.10;27.80;;;;;;;1.86;65.26;99835.19;102968;1303;107441;-77
2022/10/13 04:22:27;;;;;;;52.70;28.90;;;;;;;1.84;65.03;99839.62;103029;1304;95147;-73
2022/10/13 04:24:54;;;;;;;51.50;28.90;;;;;;;1.82;64.99;99836.19;102969;1304;97893;-75
2022/10/13 04:27:25;;;;;;;52.50;29.60;;;;;;;1.79;65.08;99839.93;103022;1296;111068;-74
2022/10/13 04:29:53;;;;;;;52.50;29.60;;;;;;;1.76;65.16;99840.16;102986;1298;98051;-75
2022/10/13 04:32:21;;;;;;;50.90;28.90;;;;;;;1.74;65.52;99840.73;103034;1297;106190;-74
2022/10/13 04:34:49;;;;;;;54.70;32.00;;;;;;;1.72;64.97;99839.38;103071;1296;97971;-73
2022/10/13 04:37:17;;;;;;;55.20;33.20;;;;;;;1.70;65.34;99839.08;103102;1296;95097;-73
2022/10/13 04:39:45;;;;;;;52.50;30.90;;;;;;;1.67;65.09;99836.71;102973;1290;111150;-74
2022/10/13 04:42:12;;;;;;;54.20;30.90;;;;;;;1.65;65.20;99832.91;103055;1296;98527;-74
2022/10/13 04:44:42;;;;;;;57.10;29.50;;;;;;;1.64;65.22;99831.34;102926;1290;159581;-75
2022/10/13 04:47:10;;;;;;;56.60;31.80;;;;;;;1.63;65.56;99832.27;103124;1297;97985;-73
2022/10/13 04:49:38;;;;;;;55.20;31.20;;;;;;;1.62;65.49;99831.23;103100;1296;97896;-78
2022/10/13 04:52:05;;;;;;;63.50;33.40;;;;;;;1.60;65.33;99833.37;103058;1297;112057;-77
2022/10/13 04:54:33;;;;;;;54.30;32.70;;;;;;;1.59;65.42;99833.41;103047;1298;95329;-75
2022/10/13 04:57:01;;;;;;;66.20;38.80;;;;;;;1.58;65.33;99831.52;103031;1296;107259;-77
2022/10/13 04:59:29;;;;;;;66.30;36.80;;;;;;;1.57;65.40;99830.64;103053;1298;97868;-75
2022/10/13 05:01:56;;;;;;;66.60;41.90;;;;;;;1.57;65.46;99836.07;103089;1296;97847;-76
2022/10/13 05:04:24;;;;;;;63.40;38.50;;;;;;;1.57;65.33;99837.29;103039;1290;111312;-77
2022/10/13 05:06:52;;;;;;;61.80;37.00;;;;;;;1.57;65.54;99840.95;103108;1300;97009;-78
2022/10/13 05:09:40;;;;;;;58.20;34.40;;;;;;;1.57;65.54;99840.08;103149;1303;107281;-76
2022/10/13 05:12:11;;;;;;;45.40;26.20;;;;;;;1.58;65.71;99838.69;103193;1296;97899;-78
2022/10/13 05:14:38;;;;;;;47.10;25.70;;;;;;;1.59;65.60;99841.08;103196;1297;95195;-77
2022/10/13 05:17:07;;;;;;;40.30;23.00;;;;;;;1.61;65.87;99842.78;103116;1297;111097;-76
2022/10/13 05:19:38;;;;;;;42.70;26.30;;;;;;;1.64;66.05;99842.37;103054;1303;97041;-78
2022/10/13 05:22:06;;;;;;;50.90;29.80;;;;;;;1.67;65.86;99844.05;102992;1290;107305;-77
2022/10/13 05:24:37;;;;;;;51.90;29.30;;;;;;;1.68;65.92;99839.13;102988;1304;97998;-76
2022/10/13 05:27:12;;;;;;;39.60;22.90;;;;;;;1.70;65.96;99842.75;102947;1297;99058;-76
2022/10/13 05:29:41;;;;;;;40.70;23.20;;;;;;;1.73;65.81;99842.34;102998;1296;109780;-77
2022/10/13 05:32:11;;;;;;;42.90;22.70;;;;;;;1.74;66.00;99840.55;102969;1303;97907;-77
2022/10/13 05:34:43;;;;;;;43.70;24.70;;;;;;;1.77;65.77;99844.51;102992;1299;106581;-77
2022/10/13 05:37:11;;;;;;;40.80;23.90;;;;;;;1.79;66.12;99846.56;103064;1299;95876;-78
2022/10/13 05:39:39;;;;;;;40.10;22.00;;;;;;;1.81;66.05;99844.77;103146;1301;98547;-78
2022/10/13 05:42:11;;;;;;;31.20;16.40;;;;;;;1.84;66.14;99842.23;103163;1296;111338;-77
2022/10/13 05:44:39;;;;;;;61.20;35.00;;;;;;;1.87;66.11;99843.40;103174;1296;97936;-76
2022/10/13 05:47:07;;;;;;;49.50;27.60;;;;;;;1.89;65.99;99843.71;103111;1300;106669;-77
2022/10/13 05:49:38;;;;;;;46.20;26.70;;;;;;;1.91;66.19;99843.65;103160;1300;97979;-77
2022/10/13 05:52:13;;;;;;;49.80;28.00;;;;;;;1.94;65.93;99842.70;103116;1303;96211;-78
2022/10/13 05:54:47;;;;;;;54.20;31.90;;;;;;;1.95;66.17;99846.52;103050;1305;111062;-77
2022/10/13 05:57:45;;;;;;;58.20;35.00;;;;;;;1.97;65.86;99843.86;103074;1305;97943;-77
2022/10/13 06:00:17;;;;;;;62.50;37.80;;;;;;;1.98;66.14;99842.61;103140;1296;107108;-78
2022/10/13 06:02:55;;;;;;;58.10;35.50;;;;;;;2.00;66.07;99844.66;103115;1296;97890;-77
2022/10/13 06:05:26;;;;;;;55.30;33.20;;;;;;;2.02;66.14;99846.35;103156;1293;98006;-78
2022/10/13 06:07:57;;;;;;;54.70;33.80;;;;;;;2.07;66.15;99847.10;103091;1299;111164;-77
2022/10/13 06:10:25;;;;;;;54.50;32.30;;;;;;;2.13;66.13;99850.81;103082;1305;97886;-77
2022/10/13 06:12:52;;;;;;;45.70;26.30;;;;;;;2.18;66.28;99851.05;103056;1296;107329;-78
2022/10/13 06:15:20;;;;;;;43.20;26.30;;;;;;;2.25;66.51;99852.79;103083;1305;95261;-77
2022/10/13 06:17:54;;;;;;;42.80;24.20;;;;;;;2.32;66.74;99850.13;103101;1304;98014;-78
2022/10/13 06:20:22;;;;;;;45.20;24.80;;;;;;;2.41;66.61;99847.66;102960;1299;110259;-78
2022/10/13 06:22:50;;;;;;;41.80;24.40;;;;;;;2.47;66.85;99844.85;102981;1306;97707;-78
2022/10/13 06:25:18;;;;;;;45.80;25.10;;;;;;;2.53;66.95;99841.36;102909;1301;107451;-77
2022/10/13 06:27:45;;;;;;;43.70;24.40;;;;;;;2.61;66.92;99846.76;103054;1298;97905;-76
2022/10/13 06:30:16;;;;;;;46.30;26.30;;;;;;;2.68;66.72;99848.83;103068;1302;97117;-77
2022/10/13 06:32:44;;;;;;;44.30;25.20;;;;;;;2.75;67.02;99854.24;103083;1289;110764;-76
2022/10/13 06:35:12;;;;;;;40.70;25.30;;;;;;;2.83;66.91;99852.62;103103;1290;97905;-76
2022/10/13 06:37:39;;;;;;;45.20;26.10;;;;;;;2.92;67.15;99854.66;103053;1288;107509;-77
2022/10/13 06:40:10;;;;;;;43.00;24.80;;;;;;;3.00;67.04;99852.67;103093;1298;97879;-76
2022/10/13 06:42:38;;;;;;;52.70;32.20;;;;;;;3.09;67.21;99847.84;103023;1296;97945;-76
2022/10/13 06:45:06;;;;;;;52.20;28.40;;;;;;;3.18;67.12;99849.01;103013;1297;110817;-71
2022/10/13 06:47:34;;;;;;;45.70;26.50;;;;;;;3.26;67.19;99852.23;102940;1296;95869;-76
2022/10/13 06:50:02;;;;;;;41.50;24.90;;;;;;;3.35;67.39;99853.57;103087;1296;107430;-76
2022/10/13 06:52:30;;;;;;;41.10;25.60;;;;;;;3.44;67.29;99853.14;103036;1297;98000;-77
2022/10/13 06:54:57;;;;;;;40.00;23.90;;;;;;;3.53;67.31;99850.92;103048;1297;98002;-75
2022/10/13 06:57:25;;;;;;;39.90;24.10;;;;;;;3.62;67.52;99849.41;103024;1290;111150;-76
2022/10/13 06:59:53;;;;;;;45.30;25.50;;;;;;;3.71;67.40;99845.61;102949;1304;97898;-74
2022/10/13 07:02:24;;;;;;;41.60;23.70;;;;;;;3.81;67.44;99846.35;102965;1289;107357;-76
2022/10/13 07:04:51;;;;;;;39.20;23.80;;;;;;;3.92;67.48;99848.64;103049;1304;98337;-76
2022/10/13 07:07:19;;;;;;;40.40;23.00;;;;;;;4.02;67.42;99844.28;103084;1296;97881;-74
2022/10/13 07:09:48;;;;;;;38.60;23.90;;;;;;;4.13;67.75;99844.44;103006;1300;111134;-78
2022/10/13 07:12:20;;;;;;;41.00;23.90;;;;;;;4.26;67.81;99844.55;103008;1304;98009;-76
2022/10/13 07:14:49;;;;;;;46.80;25.80;;;;;;;4.37;67.90;99842.03;103045;1304;107396;-76
2022/10/13 07:17:17;;;;;;;40.30;22.40;;;;;;;4.50;67.84;99841.77;103145;1289;97890;-75
2022/10/13 07:19:47;;;;;;;40.90;22.20;;;;;;;4.62;68.07;99838.17;103060;1300;97824;-75
2022/10/13 07:22:28;;;;;;;40.80;23.30;;;;;;;4.76;68.06;99835.59;102936;1297;111154;-75
2022/10/13 07:24:56;;;;;;;44.10;25.00;;;;;;;4.88;68.07;99838.98;103026;1305;95914;-75
2022/10/13 07:27:24;;;;;;;42.90;25.70;;;;;;;5.00;67.94;99837.33;103048;1296;107476;-75
2022/10/13 07:29:55;;;;;;;44.80;23.60;;;;;;;5.12;68.19;99837.95;103028;1290;95888;-76
2022/10/13 07:32:23;;;;;;;44.00;25.50;;;;;;;5.23;68.03;99836.68;103043;1298;95206;-77
2022/10/13 07:34:53;;;;;;;40.70;25.50;;;;;;;5.33;68.12;99830.48;103101;1297;110721;-76
2022/10/13 07:37:20;;;;;;;43.00;26.50;;;;;;;5.44;68.19;99827.08;103072;1296;95806;-77
2022/10/13 07:39:52;;;;;;;40.00;26.70;;;;;;;5.55;68.08;99824.69;103062;1287;107442;-77
2022/10/13 07:42:19;;;;;;;43.50;27.30;;;;;;;5.66;68.16;99821.10;103042;1296;97870;-76
2022/10/13 07:44:47;;;;;;;44.80;29.40;;;;;;;5.76;68.23;99820.66;103114;1304;98461;-76
2022/10/13 07:47:15;;;;;;;49.70;27.30;;;;;;;5.87;68.11;99817.98;103115;1298;110133;-75
2022/10/13 07:49:45;;;;;;;42.90;29.20;;;;;;;5.98;68.07;99820.87;103144;1297;95792;-77
2022/10/13 07:52:13;;;;;;;45.20;29.00;;;;;;;6.08;68.26;99821.36;103062;1304;105900;-76
2022/10/13 07:54:41;;;;;;;43.40;29.10;;;;;;;6.19;68.20;99821.95;103063;1290;97887;-77
2022/10/13 07:57:09;;;;;;;47.20;28.80;;;;;;;6.30;68.23;99816.02;103115;1300;98391;-75
2022/10/13 07:59:36;;;;;;;47.00;28.40;;;;;;;6.40;68.13;99810.64;103132;1298;111200;-76
2022/10/13 08:02:04;;;;;;;46.30;28.90;;;;;;;6.51;68.07;99807.00;103140;1296;95213;-78
2022/10/13 08:04:36;;;;;;;43.50;30.50;;;;;;;6.63;68.19;99809.83;103137;1290;107469;-78
2022/10/13 08:07:05;;;;;;;44.90;27.20;;;;;;;6.75;68.21;99813.03;103094;1297;97989;-77
2022/10/13 08:09:35;;;;;;;46.30;30.40;;;;;;;6.86;68.35;99806.70;103129;1296;95793;-76
2022/10/13 08:12:03;;;;;;;49.50;31.20;;;;;;;6.99;68.34;99807.34;103120;1296;111069;-76
2022/10/13 08:14:31;;;;;;;47.40;28.80;;;;;;;7.11;68.15;99803.45;103133;1298;97896;-77
2022/10/13 08:17:02;;;;;;;48.50;27.80;;;;;;;7.23;68.07;99798.29;103075;1303;106136;-78
2022/10/13 08:19:30;;;;;;;46.50;28.10;;;;;;;7.37;68.20;99796.07;102943;1307;97962;-78
2022/10/13 08:21:57;;;;;;;43.20;27.80;;;;;;;7.50;68.14;99796.16;103062;1297;97883;-76
2022/10/13 08:24:29;;;;;;;45.90;28.30;;;;;;;7.63;68.29;99797.12;103016;1298;110688;-76
2022/10/13 08:27:00;;;;;;;50.10;26.80;;;;;;;7.77;68.40;99798.02;103126;1304;97990;-77
2022/10/13 08:29:32;;;;;;;47.70;27.20;;;;;;;7.94;68.25;99790.80;103069;1296;107228;-77
2022/10/13 08:32:00;;;;;;;47.40;27.30;;;;;;;8.19;68.22;99788.48;103074;1304;98047;-76
2022/10/13 08:34:28;;;;;;;54.20;31.00;;;;;;;8.52;68.10;99787.69;103135;1304;97776;-78
2022/10/13 08:36:56;;;;;;;48.00;29.70;;;;;;;8.90;68.13;99788.73;103128;1297;111138;-76
2022/10/13 08:39:27;;;;;;;49.60;33.20;;;;;;;9.30;68.14;99783.85;103094;1305;97935;-76
2022/10/13 08:41:59;;;;;;;55.60;33.90;;;;;;;9.71;68.03;99786.02;103023;1297;107508;-73
2022/10/13 08:44:56;;;;;;;52.70;33.70;;;;;;;10.12;67.85;99785.04;103017;1303;97875;-75
2022/10/13 08:48:04;;;;;;;53.70;33.90;;;;;;;10.63;67.80;99780.27;103047;1299;97942;-75
2022/10/13 08:50:39;;;;;;;60.60;34.60;;;;;;;11.06;67.71;99771.42;103052;1290;111289;-76
2022/10/13 08:53:22;;;;;;;51.90;34.30;;;;;;;11.45;67.58;99773.16;103071;1299;95236;-74
2022/10/13 08:56:30;;;;;;;54.30;32.40;;;;;;;11.89;67.52;99773.67;102990;1303;107635;-75
2022/10/13 08:59:04;;;;;;;46.40;31.30;;;;;;;12.31;67.42;99769.64;102724;1296;98446;-75
2022/10/13 09:01:39;;;;;;;46.60;29.30;;;;;;;12.63;67.38;99767.08;103057;1303;97897;-76
2022/10/13 09:04:35;;;;;;;46.80;28.90;;;;;;;12.94;67.34;99759.36;102985;1299;110710;-76
2022/10/13 09:07:23;;;;;;;43.30;27.00;;;;;;;13.34;67.44;99756.05;103082;1304;97948;-75
2022/10/13 09:10:03;;;;;;;44.20;25.90;;;;;;;13.81;67.34;99753.81;103065;1300;106992;-76
2022/10/13 09:12:32;;;;;;;47.00;28.10;;;;;;;14.23;67.41;99749.22;102903;1296;95821;-76
2022/10/13 09:15:08;;;;;;;47.80;31.00;;;;;;;14.68;67.36;99746.09;102921;1298;95946;-75
2022/10/13 09:17:40;;;;;;;45.90;28.70;;;;;;;15.14;67.26;99740.15;102992;1297;110761;-75
2022/10/13 09:20:26;;;;;;;42.40;27.60;;;;;;;15.53;67.00;99737.54;102990;1299;95244;-75
2022/10/13 09:23:04;;;;;;;47.20;28.40;;;;;;;15.94;66.56;99734.32;103080;1304;106387;-73
2022/10/13 09:25:50;;;;;;;45.30;28.40;;;;;;;16.25;66.39;99728.88;103063;1306;95166;-76
2022/10/13 09:28:30;;;;;;;44.00;29.50;;;;;;;16.55;66.24;99728.80;103064;1291;96981;-75
2022/10/13 09:31:04;;;;;;;43.00;28.20;;;;;;;16.68;65.89;99729.07;103097;1297;111244;-74
2022/10/13 09:33:43;;;;;;;44.50;28.30;;;;;;;16.80;66.39;99723.25;103167;1298;96299;-74
2022/10/13 09:36:16;;;;;;;41.80;27.80;;;;;;;16.90;66.08;99718.04;102941;1299;107216;-75
2022/10/13 09:39:06;;;;;;;43.80;27.90;;;;;;;16.93;66.04;99715.94;103061;1296;97976;-77
2022/10/13 09:41:38;;;;;;;40.40;26.40;;;;;;;17.03;66.36;99717.85;102999;1299;97954;-76
2022/10/13 09:44:19;;;;;;;44.30;27.40;;;;;;;17.11;66.00;99718.21;103100;1299;111247;-75
2022/10/13 09:47:00;;;;;;;50.20;30.40;;;;;;;17.09;66.03;99722.29;103094;1297;97895;-75
2022/10/13 09:49:38;;;;;;;44.50;27.70;;;;;;;17.11;66.07;99722.15;102986;1298;107456;-76
2022/10/13 09:52:12;;;;;;;42.10;27.70;;;;;;;17.17;66.14;99721.95;102998;1307;97870;-76
2022/10/13 09:54:45;;;;;;;41.70;26.20;;;;;;;17.16;65.58;99715.80;103030;1303;97891;-75
2022/10/13 09:57:16;;;;;;;;;;;;;;;16.98;65.17;99716.10;103026;1304;111213;-73
2022/10/13 09:59:52;;;;;;;41.60;26.50;;;;;;;16.91;65.28;99714.41;103056;1303;97829;-73
2022/10/13 10:02:33;;;;;;;42.60;26.40;;;;;;;16.83;65.25;99711.88;103082;1298;109040;-75
2022/10/13 10:05:18;;;;;;;44.80;26.60;;;;;;;16.82;65.36;99709.07;103120;1305;98026;-75
2022/10/13 10:07:49;;;;;;;40.60;25.40;;;;;;;16.80;65.01;99704.26;103074;1288;98006;-75
2022/10/13 10:10:34;;;;;;;40.70;24.30;;;;;;;16.77;65.05;99699.15;103088;1296;110044;-75
2022/10/13 10:13:09;;;;;;;41.10;21.80;;;;;;;16.71;64.60;99696.95;103047;1300;98007;-74
2022/10/13 10:16:06;;;;;;;35.20;20.40;;;;;;;16.63;64.55;99687.69;102905;1291;107728;-76
2022/10/13 10:18:44;;;;;;;36.50;18.70;;;;;;;16.61;64.30;99681.54;102929;1299;95242;-74
2022/10/13 10:21:31;;;;;;;35.10;16.30;;;;;;;16.63;64.55;99676.72;103093;1290;95175;-75
2022/10/13 10:24:38;;;;;;;34.20;17.10;;;;;;;16.72;64.45;99677.36;103069;1304;110709;-76
2022/10/13 10:27:19;;;;;;;35.60;17.70;;;;;;;16.88;64.42;99674.35;103069;1304;97855;-76
2022/10/13 10:30:01;;;;;;;33.10;15.90;;;;;;;16.98;64.21;99668.62;103063;1302;107532;-75
2022/10/13 10:32:36;;;;;;;32.00;14.50;;;;;;;17.17;64.38;99664.65;103095;1300;98149;-74
2022/10/13 10:35:19;;;;;;;27.90;12.70;;;;;;;17.22;63.48;99664.17;103071;1298;97925;-74
2022/10/13 10:38:23;;;;;;;27.40;11.90;;;;;;;17.17;63.74;99663.05;103078;1303;111109;-76
2022/10/13 10:41:16;;;;;;;26.00;11.70;;;;;;;17.20;63.68;99658.29;103136;1298;97974;-76
2022/10/13 10:44:04;;;;;;;31.90;12.30;;;;;;;17.19;63.32;99654.78;103092;1300;107563;-76
2022/10/13 10:46:44;;;;;;;28.50;11.10;;;;;;;17.09;62.92;99650.30;103111;1285;96102;-75
2022/10/13 10:49:21;;;;;;;27.50;11.00;;;;;;;17.06;63.01;99651.80;103150;1304;96611;-76
2022/10/13 10:51:51;;;;;;;26.40;11.70;;;;;;;17.08;63.02;99653.27;103031;1303;111182;-76
2022/10/13 10:54:25;;;;;;;25.10;11.50;;;;;;;17.07;62.89;99648.48;103119;1304;98023;-76
2022/10/13 10:57:10;;;;;;;24.00;11.50;;;;;;;17.10;62.95;99645.48;103075;1304;107453;-76
2022/10/13 10:59:54;;;;;;;25.50;11.30;;;;;;;17.11;62.38;99646.02;103125;1298;97887;-78
2022/10/13 11:03:09;;;;;;;29.90;11.50;;;;;;;17.06;62.36;99642.89;103057;1307;97968;-77
2022/10/13 11:06:10;;;;;;;24.50;11.10;;;;;;;17.13;62.43;99637.74;103070;1302;111112;-74
2022/10/13 11:09:12;;;;;;;25.50;11.10;;;;;;;17.27;62.15;99634.84;103085;1302;95828;-75
2022/10/13 11:11:44;;;;;;;23.80;10.20;;;;;;;17.34;62.08;99631.72;103074;1300;106707;-74
2022/10/13 11:14:30;;;;;;;30.50;12.10;;;;;;;17.45;62.17;99628.58;103026;1305;98656;-76
2022/10/13 11:17:05;;;;;;;28.10;12.40;;;;;;;17.61;62.14;99620.61;103060;1304;97979;-76
2022/10/13 11:19:38;;;;;;;28.80;11.50;;;;;;;17.76;61.83;99616.77;103079;1296;111087;-77
2022/10/13 11:22:05;;;;;;;24.70;11.20;;;;;;;17.87;61.74;99614.61;103120;1297;97964;-76
2022/10/13 11:24:40;;;;;;;24.60;10.30;;;;;;;17.95;61.19;99613.00;103008;1304;107312;-79
2022/10/13 11:27:14;;;;;;;25.60;10.80;;;;;;;17.88;61.28;99604.89;103124;1297;95226;-73
2022/10/13 11:30:02;;;;;;;27.80;10.30;;;;;;;17.74;60.95;99608.06;103064;1303;98357;-78
2022/10/13 11:35:04;;;;;;;28.10;10.30;;;;;;;17.56;60.80;99600.63;102987;1298;95879;-74
2022/10/13 11:37:57;;;;;;;25.90;11.40;;;;;;;17.43;60.93;99598.46;102962;1303;107756;-75
2022/10/13 11:41:20;;;;;;;25.50;11.10;;;;;;;17.38;60.89;99596.20;103031;1296;98026;-77
2022/10/13 11:44:19;;;;;;;24.30;10.30;;;;;;;17.41;60.86;99591.44;103193;1304;96182;-76
2022/10/13 11:47:13;;;;;;;23.30;10.80;;;;;;;17.58;60.79;99589.69;103141;1304;111124;-78